Time;durP1;ratioP1;P1;durP2;ratioP2;P2;SDS_P1;SDS_P2;PMS_P1;PMS_P2;Temp;Humidity;BMP_temperature;BMP_pressure;BME280_temperature;BME280_humidity;BME280_pressure;Samples;Min_cycle;Max_cycle;Signal;HPM_P1;HPM_P2
2022/07/07 00:01:39;;;;;;;6.60;3.05;;;;;;;;;;6314252;28;20108;-82
2022/07/07 00:04:40;;;;;;;4.00;2.80;;;;;;;;;;6317346;28;20070;-83
2022/07/07 00:07:44;;;;;;;4.50;2.88;;;;;;;;;;6321463;28;20102;-83
2022/07/07 00:10:46;;;;;;;5.07;2.83;;;;;;;;;;6317328;28;20273;-84
2022/07/07 00:13:49;;;;;;;6.07;2.92;;;;;;;;;;6314156;28;20052;-87
2022/07/07 00:16:51;;;;;;;5.63;3.15;;;;;;;;;;6312462;28;20086;-83
2022/07/07 00:19:53;;;;;;;5.32;2.97;;;;;;;;;;6315819;28;20052;-86
2022/07/07 00:22:55;;;;;;;3.70;2.67;;;;;;;;;;6317483;28;20049;-83
2022/07/07 00:25:57;;;;;;;2.83;2.53;;;;;;;;;;6314667;28;20051;-84
2022/07/07 00:29:00;;;;;;;5.45;2.95;;;;;;;;;;6317237;28;20115;-85
2022/07/07 00:32:02;;;;;;;4.30;3.08;;;;;;;;;;6311956;28;20044;-83
2022/07/07 00:35:04;;;;;;;4.43;2.60;;;;;;;;;;6315506;28;20075;-82
2022/07/07 00:38:06;;;;;;;6.32;2.72;;;;;;;;;;6322079;28;20052;-83
2022/07/07 00:41:08;;;;;;;3.35;2.88;;;;;;;;;;6312576;28;20048;-86
2022/07/07 00:44:14;;;;;;;2.83;2.53;;;;;;;;;;6318245;28;20040;-84
2022/07/07 00:47:16;;;;;;;4.20;2.40;;;;;;;;;;6315444;28;20116;-84
2022/07/07 00:50:18;;;;;;;3.17;2.47;;;;;;;;;;6316899;28;20101;-80
2022/07/07 00:53:19;;;;;;;3.55;2.63;;;;;;;;;;6319245;28;20044;-83
2022/07/07 00:56:21;;;;;;;2.97;2.35;;;;;;;;;;6316179;28;20036;-82
2022/07/07 00:59:24;;;;;;;4.38;2.33;;;;;;;;;;6317091;28;20231;-83
2022/07/07 01:02:27;;;;;;;;;;;;;;;;;;6318383;28;20048;-82
2022/07/07 01:05:30;;;;;;;4.82;2.50;;;;;;;;;;6315192;28;20107;-83
2022/07/07 01:08:32;;;;;;;3.67;2.57;;;;;;;;;;6319618;28;20052;-83
2022/07/07 01:11:48;;;;;;;4.03;2.88;;;;;;;;;;6318292;28;20242;-82
2022/07/07 01:14:51;;;;;;;4.90;2.58;;;;;;;;;;6316800;28;20355;-83
2022/07/07 01:17:52;;;;;;;;;;;;;;;;;;6321341;28;20061;-82
2022/07/07 01:20:54;;;;;;;3.25;2.63;;;;;;;;;;6314554;28;19920;-84
2022/07/07 01:23:57;;;;;;;5.35;2.50;;;;;;;;;;6313990;28;20060;-81
2022/07/07 01:27:06;;;;;;;5.45;2.90;;;;;;;;;;6314466;28;20282;-83
2022/07/07 01:30:08;;;;;;;3.40;2.30;;;;;;;;;;6316804;28;20056;-82
2022/07/07 01:33:10;;;;;;;5.57;2.80;;;;;;;;;;6317332;28;20052;-83
2022/07/07 01:36:13;;;;;;;4.93;2.30;;;;;;;;;;6319601;28;20491;-83
2022/07/07 01:39:16;;;;;;;;;;;;;;;;;;6318904;28;20043;-86
2022/07/07 01:42:17;;;;;;;8.27;2.40;;;;;;;;;;6312843;28;19950;-83
2022/07/07 01:45:19;;;;;;;4.57;3.15;;;;;;;;;;6318984;28;20294;-81
2022/07/07 01:48:21;;;;;;;4.68;2.70;;;;;;;;;;6319449;28;20067;-82
2022/07/07 01:51:23;;;;;;;3.58;2.50;;;;;;;;;;6319020;28;20110;-81
2022/07/07 01:54:26;;;;;;;4.68;2.08;;;;;;;;;;6314662;28;20052;-83
2022/07/07 01:57:27;;;;;;;;;;;;;;;;;;6312718;28;20079;-87
2022/07/07 02:00:29;;;;;;;3.58;2.13;;;;;;;;;;6315802;28;19935;-83
2022/07/07 02:03:31;;;;;;;4.40;2.92;;;;;;;;;;6319278;28;20263;-82
2022/07/07 02:06:33;;;;;;;4.05;2.33;;;;;;;;;;6314906;28;20208;-81
2022/07/07 02:09:36;;;;;;;5.78;2.60;;;;;;;;;;6314035;28;20044;-83
2022/07/07 02:12:38;;;;;;;6.20;2.50;;;;;;;;;;6317364;28;20090;-82
2022/07/07 02:15:40;;;;;;;3.40;2.47;;;;;;;;;;6315711;28;20052;-82
2022/07/07 02:18:42;;;;;;;3.35;2.42;;;;;;;;;;6315840;28;20350;-83
2022/07/07 02:21:44;;;;;;;3.78;2.78;;;;;;;;;;6315967;28;20076;-80
2022/07/07 02:24:47;;;;;;;4.72;2.58;;;;;;;;;;6315367;28;20116;-80
2022/07/07 02:27:49;;;;;;;5.63;2.58;;;;;;;;;;6312674;28;20058;-80
2022/07/07 02:30:51;;;;;;;3.15;2.42;;;;;;;;;;6318094;28;20350;-81
2022/07/07 02:33:53;;;;;;;3.03;2.50;;;;;;;;;;6310434;28;20045;-81
2022/07/07 02:36:54;;;;;;;3.15;2.53;;;;;;;;;;6318878;28;20063;-84
2022/07/07 02:39:57;;;;;;;5.38;2.50;;;;;;;;;;6313832;28;20111;-83
2022/07/07 02:42:59;;;;;;;4.63;2.40;;;;;;;;;;6316821;28;20055;-81
2022/07/07 02:46:01;;;;;;;3.30;2.22;;;;;;;;;;6314031;28;20354;-81
2022/07/07 02:49:02;;;;;;;6.22;2.38;;;;;;;;;;6315882;28;20051;-81
2022/07/07 02:52:05;;;;;;;4.90;2.65;;;;;;;;;;6315666;28;20059;-80
2022/07/07 02:55:09;;;;;;;2.95;2.03;;;;;;;;;;6315580;28;20093;-81
2022/07/07 02:58:12;;;;;;;6.30;2.40;;;;;;;;;;6318123;28;20059;-82
2022/07/07 03:01:14;;;;;;;3.85;2.33;;;;;;;;;;6311930;28;20097;-81
2022/07/07 03:04:16;;;;;;;3.75;2.28;;;;;;;;;;6313802;28;20060;-81
2022/07/07 03:07:19;;;;;;;3.45;2.40;;;;;;;;;;6316670;28;20044;-81
2022/07/07 03:10:22;;;;;;;3.83;2.42;;;;;;;;;;6314788;28;20091;-80
2022/07/07 03:13:24;;;;;;;;;;;;;;;;;;6313328;28;20048;-83
2022/07/07 03:16:26;;;;;;;4.03;2.72;;;;;;;;;;6310948;28;19923;-79
2022/07/07 03:19:27;;;;;;;3.08;2.20;;;;;;;;;;6314422;28;20048;-81
2022/07/07 03:22:29;;;;;;;4.65;2.47;;;;;;;;;;6313251;28;20072;-82
2022/07/07 03:25:32;;;;;;;3.45;2.30;;;;;;;;;;6311079;28;20059;-82
2022/07/07 03:28:34;;;;;;;;;;;;;;;;;;6311107;28;20242;-81
2022/07/07 03:31:35;;;;;;;7.03;2.92;;;;;;;;;;6310505;28;19920;-80
2022/07/07 03:34:37;;;;;;;6.13;2.90;;;;;;;;;;6311762;28;20048;-80
2022/07/07 03:37:39;;;;;;;4.22;2.30;;;;;;;;;;6313954;28;20055;-83
2022/07/07 03:40:42;;;;;;;5.55;2.50;;;;;;;;;;6311920;28;20331;-82
2022/07/07 03:43:43;;;;;;;4.75;2.13;;;;;;;;;;6315341;28;20366;-80
2022/07/07 03:46:45;;;;;;;4.03;2.47;;;;;;;;;;6317973;28;20040;-80
2022/07/07 03:49:47;;;;;;;6.25;2.50;;;;;;;;;;6316609;28;20071;-80
2022/07/07 03:52:49;;;;;;;2.75;2.25;;;;;;;;;;6313564;28;20036;-83
2022/07/07 03:55:52;;;;;;;6.65;2.15;;;;;;;;;;6314960;28;20048;-83
2022/07/07 03:58:53;;;;;;;5.22;2.28;;;;;;;;;;6316535;28;20056;-83
2022/07/07 04:01:55;;;;;;;2.95;2.10;;;;;;;;;;6313716;28;20098;-86
2022/07/07 04:04:57;;;;;;;4.30;2.40;;;;;;;;;;6315568;28;20055;-84
2022/07/07 04:07:58;;;;;;;3.33;2.03;;;;;;;;;;6316276;28;20060;-81
2022/07/07 04:11:01;;;;;;;4.93;2.38;;;;;;;;;;6317344;28;20063;-81
2022/07/07 04:14:04;;;;;;;4.15;2.20;;;;;;;;;;6311958;28;20057;-82
2022/07/07 04:17:06;;;;;;;4.77;2.00;;;;;;;;;;6312668;28;20059;-81
2022/07/07 04:20:09;;;;;;;4.10;2.00;;;;;;;;;;6315684;28;20048;-82
2022/07/07 04:23:10;;;;;;;3.65;2.20;;;;;;;;;;6312005;28;20044;-81
2022/07/07 04:26:13;;;;;;;2.60;2.05;;;;;;;;;;6314169;28;20047;-81
2022/07/07 04:29:16;;;;;;;3.13;2.17;;;;;;;;;;6315428;28;20056;-82
2022/07/07 04:32:18;;;;;;;3.67;1.92;;;;;;;;;;6320920;28;20044;-82
2022/07/07 04:35:19;;;;;;;7.72;2.42;;;;;;;;;;6316838;28;20335;-83
2022/07/07 04:38:21;;;;;;;5.70;1.80;;;;;;;;;;6316741;28;20360;-82
2022/07/07 04:41:24;;;;;;;9.43;2.47;;;;;;;;;;6315677;28;20130;-81
2022/07/07 04:44:26;;;;;;;3.88;2.00;;;;;;;;;;6316954;28;20405;-82
2022/07/07 04:47:27;;;;;;;9.05;2.00;;;;;;;;;;6319162;28;20331;-81
2022/07/07 04:50:29;;;;;;;4.70;2.10;;;;;;;;;;6317965;28;20076;-86
2022/07/07 04:53:31;;;;;;;4.97;1.90;;;;;;;;;;6317299;28;20044;-83
2022/07/07 04:56:34;;;;;;;4.22;1.88;;;;;;;;;;6316554;28;20044;-81
2022/07/07 04:59:36;;;;;;;3.00;1.70;;;;;;;;;;6317833;28;20052;-81
2022/07/07 05:02:38;;;;;;;3.78;2.28;;;;;;;;;;6317998;28;20339;-83
2022/07/07 05:05:40;;;;;;;5.30;1.83;;;;;;;;;;6318686;28;20051;-83
2022/07/07 05:08:41;;;;;;;6.47;1.65;;;;;;;;;;6317024;28;20055;-81
2022/07/07 05:11:44;;;;;;;5.20;1.65;;;;;;;;;;6318363;28;20070;-82
2022/07/07 05:14:47;;;;;;;;;;;;;;;;;;6316827;28;20060;-81
2022/07/07 05:17:49;;;;;;;4.15;1.40;;;;;;;;;;6313561;28;19916;-81
2022/07/07 05:20:50;;;;;;;4.63;1.88;;;;;;;;;;6318928;28;20271;-82
2022/07/07 05:23:52;;;;;;;2.97;1.88;;;;;;;;;;6318506;28;20059;-81
2022/07/07 05:26:55;;;;;;;4.45;1.95;;;;;;;;;;6315592;28;20056;-81
2022/07/07 05:29:57;;;;;;;2.60;1.73;;;;;;;;;;6315490;28;20056;-84
2022/07/07 05:32:58;;;;;;;4.05;2.00;;;;;;;;;;6318549;28;20055;-81
2022/07/07 05:36:00;;;;;;;2.65;1.90;;;;;;;;;;6316237;28;20086;-87
2022/07/07 05:39:02;;;;;;;3.13;1.73;;;;;;;;;;6316300;28;20319;-80
2022/07/07 05:42:05;;;;;;;3.97;1.90;;;;;;;;;;6313294;28;20102;-80
2022/07/07 05:45:08;;;;;;;4.88;1.83;;;;;;;;;;6315725;28;20044;-86
2022/07/07 05:48:10;;;;;;;3.97;1.70;;;;;;;;;;6313866;28;20052;-80
2022/07/07 05:51:12;;;;;;;5.18;1.83;;;;;;;;;;6319687;28;20044;-81
2022/07/07 05:54:14;;;;;;;2.95;1.85;;;;;;;;;;6314105;28;20052;-80
2022/07/07 05:57:17;;;;;;;4.72;2.08;;;;;;;;;;6320113;28;20365;-80
2022/07/07 06:00:18;;;;;;;3.30;1.98;;;;;;;;;;6317393;28;20056;-80
2022/07/07 06:03:20;;;;;;;5.35;2.10;;;;;;;;;;6315593;28;20044;-79
2022/07/07 06:06:22;;;;;;;5.18;2.00;;;;;;;;;;6318074;28;20314;-80
2022/07/07 06:09:24;;;;;;;9.80;2.08;;;;;;;;;;6317333;28;20096;-89
2022/07/07 06:12:27;;;;;;;4.53;2.10;;;;;;;;;;6311067;28;20055;-80
2022/07/07 06:15:32;;;;;;;3.35;2.15;;;;;;;;;;6308024;28;20052;-79
2022/07/07 06:18:34;;;;;;;3.83;2.33;;;;;;;;;;6308645;28;20060;-80
2022/07/07 06:21:36;;;;;;;4.22;2.50;;;;;;;;;;6310234;28;20048;-81
2022/07/07 06:24:38;;;;;;;8.25;2.22;;;;;;;;;;6307393;28;20109;-86
2022/07/07 06:27:41;;;;;;;6.10;1.70;;;;;;;;;;6308033;28;20338;-87
2022/07/07 06:30:42;;;;;;;;;;;;;;;;;;6310072;28;20048;-87
2022/07/07 06:33:44;;;;;;;5.05;2.40;;;;;;;;;;6305271;28;20272;-86
2022/07/07 06:36:45;;;;;;;8.05;2.85;;;;;;;;;;6305691;28;20048;-80
2022/07/07 06:39:47;;;;;;;5.85;2.72;;;;;;;;;;6309361;28;20051;-80
2022/07/07 06:42:50;;;;;;;4.85;2.42;;;;;;;;;;6313918;28;20047;-78
2022/07/07 06:45:52;;;;;;;4.90;2.40;;;;;;;;;;6320899;28;20052;-79
2022/07/07 06:48:54;;;;;;;5.75;2.95;;;;;;;;;;6314946;28;20056;-78
2022/07/07 06:51:56;;;;;;;5.30;3.00;;;;;;;;;;6310995;28;20106;-77
2022/07/07 06:54:58;;;;;;;4.72;2.78;;;;;;;;;;6320568;28;20212;-80
2022/07/07 06:58:02;;;;;;;3.92;2.70;;;;;;;;;;6314083;28;20060;-76
2022/07/07 07:01:04;;;;;;;5.97;2.90;;;;;;;;;;6314440;28;20060;-75
2022/07/07 07:04:07;;;;;;;4.53;3.00;;;;;;;;;;6314262;28;20063;-76
2022/07/07 07:07:09;;;;;;;5.03;2.60;;;;;;;;;;6315791;28;20315;-80
2022/07/07 07:10:10;;;;;;;6.10;3.67;;;;;;;;;;6317322;28;20045;-78
2022/07/07 07:13:13;;;;;;;7.47;3.60;;;;;;;;;;6314497;28;20067;-75
2022/07/07 07:16:15;;;;;;;6.28;3.28;;;;;;;;;;6307086;28;20323;-77
2022/07/07 07:19:17;;;;;;;4.28;3.28;;;;;;;;;;6315438;28;20055;-76
2022/07/07 07:22:19;;;;;;;5.25;3.92;;;;;;;;;;6313590;28;20051;-75
2022/07/07 07:25:21;;;;;;;11.60;3.92;;;;;;;;;;6319005;28;20051;-77
2022/07/07 07:28:24;;;;;;;6.85;4.80;;;;;;;;;;6315710;28;20334;-75
2022/07/07 07:31:26;;;;;;;6.65;3.47;;;;;;;;;;6302107;28;20145;-79
2022/07/07 07:34:27;;;;;;;8.57;4.43;;;;;;;;;;6303888;28;20226;-75
2022/07/07 07:37:29;;;;;;;6.22;4.30;;;;;;;;;;6314517;28;20366;-76
2022/07/07 07:40:31;;;;;;;6.47;3.78;;;;;;;;;;6315607;28;20138;-76
2022/07/07 07:43:34;;;;;;;6.05;3.00;;;;;;;;;;6305770;28;20044;-78
2022/07/07 07:46:35;;;;;;;;;;;;;;;;;;6318281;28;20048;-77
2022/07/07 07:49:37;;;;;;;4.30;3.70;;;;;;;;;;6308931;28;19939;-81
2022/07/07 07:52:40;;;;;;;4.82;3.55;;;;;;;;;;6305558;28;20122;-79
2022/07/07 07:55:42;;;;;;;5.55;3.15;;;;;;;;;;6306492;28;20049;-80
2022/07/07 07:58:45;;;;;;;3.43;2.50;;;;;;;;;;6302544;28;20052;-82
2022/07/07 08:01:47;;;;;;;3.85;2.85;;;;;;;;;;6307707;28;20227;-78
2022/07/07 08:04:48;;;;;;;3.80;2.95;;;;;;;;;;6308711;28;20040;-79
2022/07/07 08:07:50;;;;;;;8.32;2.60;;;;;;;;;;6310149;28;20049;-78
2022/07/07 08:10:52;;;;;;;4.53;2.50;;;;;;;;;;6312563;28;20048;-88
2022/07/07 08:13:55;;;;;;;4.20;2.88;;;;;;;;;;6312069;28;20056;-84
2022/07/07 08:16:57;;;;;;;5.47;3.28;;;;;;;;;;6312301;28;20052;-84
2022/07/07 08:19:58;;;;;;;4.97;2.50;;;;;;;;;;6308073;28;20238;-81
2022/07/07 08:23:00;;;;;;;3.20;2.38;;;;;;;;;;6312215;28;20049;-85
2022/07/07 08:26:02;;;;;;;4.18;1.95;;;;;;;;;;6310837;28;20052;-85
2022/07/07 08:29:05;;;;;;;5.05;2.28;;;;;;;;;;6311342;28;21551;-88
2022/07/07 08:32:10;;;;;;;2.30;2.10;;;;;;;;;;6309010;28;20366;-85
2022/07/07 08:35:12;;;;;;;9.18;3.28;;;;;;;;;;6310073;28;20052;-82
2022/07/07 08:38:14;;;;;;;2.83;1.90;;;;;;;;;;6310273;28;20051;-84
2022/07/07 08:41:16;;;;;;;3.75;2.13;;;;;;;;;;6310281;28;20063;-80
2022/07/07 08:44:19;;;;;;;5.53;2.30;;;;;;;;;;6310353;28;20052;-79
2022/07/07 08:47:21;;;;;;;3.92;2.08;;;;;;;;;;6308053;28;20474;-79
2022/07/07 08:50:23;;;;;;;3.72;1.92;;;;;;;;;;6308071;28;20056;-84
2022/07/07 08:53:26;;;;;;;5.00;2.00;;;;;;;;;;6306403;28;20119;-79
2022/07/07 08:56:28;;;;;;;3.42;1.85;;;;;;;;;;6310329;28;20048;-80
2022/07/07 08:59:31;;;;;;;6.13;2.65;;;;;;;;;;6304255;28;20056;-80
2022/07/07 09:02:33;;;;;;;6.70;2.10;;;;;;;;;;6305859;28;20071;-84
2022/07/07 09:05:37;;;;;;;5.03;2.00;;;;;;;;;;6306977;28;20052;-80
2022/07/07 09:08:40;;;;;;;4.32;2.00;;;;;;;;;;6302347;28;20268;-83
2022/07/07 09:11:41;;;;;;;3.42;2.00;;;;;;;;;;6306541;28;20052;-80
2022/07/07 09:14:46;;;;;;;3.13;2.08;;;;;;;;;;6310866;28;20059;-79
2022/07/07 09:17:48;;;;;;;3.58;2.10;;;;;;;;;;6309821;28;20051;-85
2022/07/07 09:20:50;;;;;;;2.87;2.00;;;;;;;;;;6305322;28;20036;-79
2022/07/07 09:23:53;;;;;;;3.70;1.83;;;;;;;;;;6305622;28;20482;-80
2022/07/07 09:26:55;;;;;;;3.50;2.13;;;;;;;;;;6308960;28;20102;-80
2022/07/07 09:29:59;;;;;;;2.78;1.75;;;;;;;;;;6304928;28;20052;-81
2022/07/07 09:33:03;;;;;;;4.93;1.80;;;;;;;;;;6307223;28;20058;-80
2022/07/07 09:39:25;;;;;;;3.58;2.10;;;;;;;;;;6307112;28;20048;-79
2022/07/07 09:42:28;;;;;;;3.83;2.05;;;;;;;;;;6311665;28;20072;-81
2022/07/07 09:45:31;;;;;;;3.60;2.25;;;;;;;;;;6300952;28;20247;-81
2022/07/07 09:48:33;;;;;;;2.40;2.03;;;;;;;;;;6314421;28;20060;-81
2022/07/07 09:51:35;;;;;;;4.10;2.00;;;;;;;;;;6309726;28;20060;-79
2022/07/07 09:54:46;;;;;;;2.42;1.92;;;;;;;;;;6316910;28;20208;-80
2022/07/07 09:57:48;;;;;;;5.10;2.28;;;;;;;;;;6320058;28;20431;-80
2022/07/07 10:00:51;;;;;;;5.82;2.00;;;;;;;;;;6304829;28;20051;-79
2022/07/07 10:03:56;;;;;;;2.67;1.98;;;;;;;;;;6301838;28;20060;-81
2022/07/07 10:06:59;;;;;;;2.70;1.77;;;;;;;;;;6303314;28;21767;-82
2022/07/07 10:10:02;;;;;;;4.53;1.70;;;;;;;;;;6306173;28;20335;-83
2022/07/07 10:13:04;;;;;;;4.47;2.05;;;;;;;;;;6308181;28;20106;-81
2022/07/07 10:16:07;;;;;;;;;;;;;;;;;;6305538;28;20048;-80
2022/07/07 10:19:11;;;;;;;3.15;1.63;;;;;;;;;;6304254;28;20322;-80
2022/07/07 10:22:14;;;;;;;4.60;1.63;;;;;;;;;;6307097;28;20266;-88
2022/07/07 10:25:16;;;;;;;3.42;1.60;;;;;;;;;;6303153;28;20046;-81
2022/07/07 10:28:18;;;;;;;1.35;1.25;;;;;;;;;;6304465;28;20098;-83
2022/07/07 10:31:23;;;;;;;4.22;1.63;;;;;;;;;;6304266;28;20057;-82
2022/07/07 10:34:33;;;;;;;2.65;1.90;;;;;;;;;;6307856;28;20051;-83
2022/07/07 10:37:42;;;;;;;4.40;1.60;;;;;;;;;;6307146;28;20232;-82
2022/07/07 10:40:52;;;;;;;3.38;1.60;;;;;;;;;;6301136;28;20039;-83
2022/07/07 10:44:03;;;;;;;4.38;2.38;;;;;;;;;;6301633;28;20590;-84
2022/07/07 10:47:33;;;;;;;2.10;1.65;;;;;;;;;;6305626;28;20044;-84
2022/07/07 10:50:35;;;;;;;2.00;1.65;;;;;;;;;;6304258;28;20052;-84
2022/07/07 10:53:37;;;;;;;7.32;1.77;;;;;;;;;;6301961;28;20071;-83
2022/07/07 10:57:11;;;;;;;1.77;1.65;;;;;;;;;;6306465;28;20070;-83
2022/07/07 11:00:18;;;;;;;3.90;1.60;;;;;;;;;;6303655;28;20063;-84
2022/07/07 11:03:23;;;;;;;2.05;1.45;;;;;;;;;;6300836;28;20062;-85
2022/07/07 11:06:25;;;;;;;5.65;1.92;;;;;;;;;;6303253;28;20048;-80
2022/07/07 11:09:57;;;;;;;3.17;1.50;;;;;;;;;;6308189;28;20381;-83
2022/07/07 11:13:14;;;;;;;2.67;1.60;;;;;;;;;;6303493;28;20106;-82
2022/07/07 11:16:17;;;;;;;3.83;1.70;;;;;;;;;;6304955;28;20059;-81
2022/07/07 11:19:20;;;;;;;2.30;1.70;;;;;;;;;;6303779;28;20131;-81
2022/07/07 11:22:22;;;;;;;2.67;1.60;;;;;;;;;;6305285;28;20098;-83
2022/07/07 11:25:26;;;;;;;4.75;1.90;;;;;;;;;;6302621;28;20117;-83
2022/07/07 11:28:28;;;;;;;1.90;1.55;;;;;;;;;;6304867;28;20726;-85
2022/07/07 11:31:30;;;;;;;3.35;1.48;;;;;;;;;;6301559;28;20059;-81
2022/07/07 11:34:49;;;;;;;3.17;1.73;;;;;;;;;;6301365;28;21293;-85
2022/07/07 11:37:50;;;;;;;2.78;1.50;;;;;;;;;;6298078;28;20072;-82
2022/07/07 11:40:52;;;;;;;2.65;1.63;;;;;;;;;;6304090;28;20066;-82
2022/07/07 11:43:55;;;;;;;4.07;1.60;;;;;;;;;;6304380;28;20821;-82
2022/07/07 11:46:56;;;;;;;2.15;1.48;;;;;;;;;;6302837;28;20059;-82
2022/07/07 11:49:59;;;;;;;3.08;1.50;;;;;;;;;;6304254;28;20059;-79
2022/07/07 11:53:03;;;;;;;5.10;1.75;;;;;;;;;;6302354;28;20056;-81
2022/07/07 11:56:06;;;;;;;3.40;1.80;;;;;;;;;;6302281;28;20406;-82
2022/07/07 11:59:08;;;;;;;3.38;1.35;;;;;;;;;;6307337;28;20048;-82
2022/07/07 12:02:17;;;;;;;1.70;1.60;;;;;;;;;;6312109;28;20057;-82
2022/07/07 12:05:22;;;;;;;1.77;1.42;;;;;;;;;;6315308;28;20048;-81
2022/07/07 12:08:33;;;;;;;3.22;1.50;;;;;;;;;;6310807;28;20044;-82
2022/07/07 12:11:38;;;;;;;6.20;1.88;;;;;;;;;;6309531;28;20059;-82
2022/07/07 12:14:43;;;;;;;4.28;1.55;;;;;;;;;;6310009;28;20422;-81
2022/07/07 12:17:45;;;;;;;1.80;1.60;;;;;;;;;;6308374;28;20130;-80
2022/07/07 12:20:56;;;;;;;2.95;1.63;;;;;;;;;;6308677;28;21355;-83
2022/07/07 12:23:57;;;;;;;4.90;1.85;;;;;;;;;;6306408;28;20304;-82
2022/07/07 12:26:59;;;;;;;3.85;1.70;;;;;;;;;;6307907;28;20354;-82
2022/07/07 12:30:02;;;;;;;2.55;1.55;;;;;;;;;;6309110;28;20051;-82
2022/07/07 12:33:05;;;;;;;3.42;1.60;;;;;;;;;;6317323;28;20110;-81
2022/07/07 12:36:13;;;;;;;2.95;1.73;;;;;;;;;;6315813;28;20123;-82
2022/07/07 12:39:15;;;;;;;4.53;1.80;;;;;;;;;;6310981;28;20122;-83
2022/07/07 12:42:24;;;;;;;;;;;;;;;;;;6305770;28;20343;-84
2022/07/07 12:45:26;;;;;;;2.55;1.45;;;;;;;;;;6306068;28;19926;-82
2022/07/07 12:48:28;;;;;;;4.22;1.95;;;;;;;;;;6308311;28;20102;-84
2022/07/07 12:51:31;;;;;;;3.40;1.70;;;;;;;;;;6312850;28;20053;-82
2022/07/07 12:54:33;;;;;;;3.47;1.80;;;;;;;;;;6307620;28;20056;-83
2022/07/07 12:57:35;;;;;;;3.58;1.50;;;;;;;;;;6307678;28;20115;-83
2022/07/07 13:00:37;;;;;;;3.83;1.90;;;;;;;;;;6305923;28;20607;-85
2022/07/07 13:03:38;;;;;;;1.90;1.70;;;;;;;;;;6302629;28;20056;-82
2022/07/07 13:06:41;;;;;;;3.47;2.10;;;;;;;;;;6301510;28;20365;-87
2022/07/07 13:09:43;;;;;;;2.95;1.75;;;;;;;;;;6302578;28;20390;-86
2022/07/07 13:12:47;;;;;;;4.72;1.77;;;;;;;;;;6302450;28;20328;-81
2022/07/07 13:15:48;;;;;;;4.60;1.80;;;;;;;;;;6305726;28;20048;-81
2022/07/07 13:18:50;;;;;;;2.10;1.85;;;;;;;;;;6305900;28;20055;-82
2022/07/07 13:21:53;;;;;;;4.22;1.80;;;;;;;;;;6307321;28;20050;-81
2022/07/07 13:24:55;;;;;;;5.22;1.88;;;;;;;;;;6306469;28;20070;-80
2022/07/07 13:27:57;;;;;;;2.90;1.90;;;;;;;;;;6304749;28;20048;-82
2022/07/07 13:30:59;;;;;;;5.38;1.90;;;;;;;;;;6303901;28;20044;-81
2022/07/07 13:34:02;;;;;;;2.30;2.00;;;;;;;;;;6308219;28;20126;-81
2022/07/07 13:37:05;;;;;;;5.43;2.05;;;;;;;;;;6304982;28;20044;-83
2022/07/07 13:40:08;;;;;;;3.65;2.08;;;;;;;;;;6304180;28;20071;-85
2022/07/07 13:43:10;;;;;;;4.03;1.88;;;;;;;;;;6306927;28;20383;-86
2022/07/07 13:46:11;;;;;;;3.25;1.90;;;;;;;;;;6303663;28;20252;-84
2022/07/07 13:49:13;;;;;;;;;;;;;;;;;;6305536;28;20059;-85
2022/07/07 13:52:16;;;;;;;2.33;1.95;;;;;;;;;;6307564;28;19932;-83
2022/07/07 13:55:18;;;;;;;3.88;1.90;;;;;;;;;;6305612;28;20157;-79
2022/07/07 13:58:20;;;;;;;4.25;1.75;;;;;;;;;;6308800;28;20071;-81
2022/07/07 14:01:22;;;;;;;2.78;2.20;;;;;;;;;;6306146;28;20059;-84
2022/07/07 14:04:23;;;;;;;;;;;;;;;;;;6304147;28;20059;-80
2022/07/07 14:07:26;;;;;;;3.95;1.73;;;;;;;;;;6307766;28;20215;-83
2022/07/07 14:10:28;;;;;;;1.88;1.77;;;;;;;;;;6303197;28;20078;-83
2022/07/07 14:13:29;;;;;;;;;;;;;;;;;;6307743;28;20068;-82
2022/07/07 14:16:31;;;;;;;2.55;1.90;;;;;;;;;;6304315;28;20195;-82
2022/07/07 14:19:33;;;;;;;;;;;;;;;;;;6305749;28;20048;-81
2022/07/07 14:22:36;;;;;;;2.38;1.80;;;;;;;;;;6302938;28;19928;-80
2022/07/07 14:25:38;;;;;;;3.97;1.88;;;;;;;;;;6304512;28;20056;-82
2022/07/07 14:28:39;;;;;;;;;;;;;;;;;;6306556;28;20056;-82
2022/07/07 14:31:41;;;;;;;3.17;1.90;;;;;;;;;;6305729;28;19928;-82
2022/07/07 14:34:43;;;;;;;4.30;2.10;;;;;;;;;;6306150;28;20055;-84
2022/07/07 14:37:46;;;;;;;1.90;1.70;;;;;;;;;;6305556;28;21047;-83
2022/07/07 14:40:48;;;;;;;3.50;1.98;;;;;;;;;;6305307;28;20075;-85
2022/07/07 14:43:49;;;;;;;;;;;;;;;;;;6306800;28;20059;-85
2022/07/07 14:46:51;;;;;;;4.97;1.90;;;;;;;;;;6303393;28;19936;-88
2022/07/07 14:49:53;;;;;;;;;;;;;;;;;;6304859;28;20661;-87
2022/07/07 14:52:56;;;;;;;6.03;2.03;;;;;;;;;;6305794;28;19929;-87
2022/07/07 14:55:58;;;;;;;3.40;1.73;;;;;;;;;;6302568;28;20063;-86
2022/07/07 14:59:00;;;;;;;4.20;2.30;;;;;;;;;;6303228;28;20278;-86
2022/07/07 15:02:02;;;;;;;2.63;2.30;;;;;;;;;;6305694;28;20049;-87
2022/07/07 15:05:04;;;;;;;4.90;3.47;;;;;;;;;;6330839;28;20066;-88
2022/07/07 15:08:07;;;;;;;3.88;2.08;;;;;;;;;;6327519;28;20134;-90
2022/07/07 15:11:09;;;;;;;2.90;1.70;;;;;;;;;;6326473;28;20051;-88
2022/07/07 15:14:11;;;;;;;4.00;2.28;;;;;;;;;;6329588;28;20047;-85
2022/07/07 15:17:12;;;;;;;2.75;2.55;;;;;;;;;;6330002;28;20062;-85
2022/07/07 15:20:15;;;;;;;2.92;1.90;;;;;;;;;;6330284;28;20063;-87
2022/07/07 15:23:18;;;;;;;3.92;1.70;;;;;;;;;;6330169;28;20118;-88
2022/07/07 15:26:21;;;;;;;1.92;1.70;;;;;;;;;;6330514;28;20044;-88
2022/07/07 15:29:23;;;;;;;1.77;1.67;;;;;;;;;;6338966;28;20078;-87
2022/07/07 15:32:25;;;;;;;2.67;1.60;;;;;;;;;;6337613;28;20097;-87
2022/07/07 15:35:27;;;;;;;5.07;1.63;;;;;;;;;;6334776;28;20357;-89
2022/07/07 15:38:30;;;;;;;1.70;1.50;;;;;;;;;;6339970;28;20040;-84
2022/07/07 15:41:33;;;;;;;2.60;1.63;;;;;;;;;;6336038;28;20063;-85
2022/07/07 15:44:35;;;;;;;4.55;2.10;;;;;;;;;;6337261;28;20063;-88
2022/07/07 15:47:36;;;;;;;3.97;1.55;;;;;;;;;;6336178;28;20234;-87
2022/07/07 15:50:38;;;;;;;2.78;2.17;;;;;;;;;;6337677;28;20059;-88
2022/07/07 15:53:42;;;;;;;4.18;1.60;;;;;;;;;;6337571;28;20055;-87
2022/07/07 15:56:44;;;;;;;2.20;1.42;;;;;;;;;;6343113;28;20051;-88
2022/07/07 15:59:45;;;;;;;4.20;1.45;;;;;;;;;;6341188;28;20086;-85
2022/07/07 16:02:47;;;;;;;2.20;1.50;;;;;;;;;;6327517;28;20060;-88
2022/07/07 16:05:49;;;;;;;2.50;1.20;;;;;;;;;;6310663;28;20223;-86
2022/07/07 16:08:52;;;;;;;7.85;1.80;;;;;;;;;;6313038;28;20044;-87
2022/07/07 16:11:54;;;;;;;3.03;1.60;;;;;;;;;;6314538;28;20088;-87
2022/07/07 16:14:56;;;;;;;3.67;1.40;;;;;;;;;;6312983;28;20056;-88
2022/07/07 16:17:57;;;;;;;2.75;1.60;;;;;;;;;;6311785;28;20064;-87
2022/07/07 16:20:59;;;;;;;4.43;1.70;;;;;;;;;;6310042;28;20044;-86
2022/07/07 16:24:02;;;;;;;3.03;1.60;;;;;;;;;;6316300;28;20056;-85
2022/07/07 16:27:05;;;;;;;1.40;1.30;;;;;;;;;;6318764;28;20052;-85
2022/07/07 16:30:07;;;;;;;2.67;1.50;;;;;;;;;;6316565;28;20051;-85
2022/07/07 16:33:09;;;;;;;4.40;1.30;;;;;;;;;;6318693;28;20319;-85
2022/07/07 16:36:11;;;;;;;1.75;1.40;;;;;;;;;;6318708;28;20082;-86
2022/07/07 16:39:16;;;;;;;1.75;1.50;;;;;;;;;;6317108;28;20328;-85
2022/07/07 16:42:18;;;;;;;2.67;1.30;;;;;;;;;;6316364;28;20056;-85
2022/07/07 16:45:20;;;;;;;2.63;1.95;;;;;;;;;;6319397;28;20106;-85
2022/07/07 16:48:21;;;;;;;3.13;1.17;;;;;;;;;;6319385;28;20063;-85
2022/07/07 16:51:23;;;;;;;6.70;1.43;;;;;;;;;;6316807;28;20040;-86
2022/07/07 16:54:26;;;;;;;3.63;1.42;;;;;;;;;;6313796;28;20052;-85
2022/07/07 16:57:29;;;;;;;3.03;1.10;;;;;;;;;;6312863;28;20053;-86
2022/07/07 17:00:31;;;;;;;4.05;1.00;;;;;;;;;;6317338;28;20048;-86
2022/07/07 17:03:32;;;;;;;1.27;1.00;;;;;;;;;;6317019;28;20059;-86
2022/07/07 17:06:34;;;;;;;8.10;1.13;;;;;;;;;;6311584;28;20500;-84
2022/07/07 17:09:37;;;;;;;3.57;1.00;;;;;;;;;;6318186;28;20729;-85
2022/07/07 17:12:39;;;;;;;2.35;0.80;;;;;;;;;;6313563;28;20052;-85
2022/07/07 17:15:41;;;;;;;2.93;1.13;;;;;;;;;;6314771;28;20331;-83
2022/07/07 17:18:42;;;;;;;2.77;1.10;;;;;;;;;;6315777;28;20051;-82
2022/07/07 17:21:44;;;;;;;3.80;0.90;;;;;;;;;;6317093;28;20266;-85
2022/07/07 17:24:47;;;;;;;6.80;1.30;;;;;;;;;;6317766;28;20048;-84
2022/07/07 17:27:49;;;;;;;3.97;1.33;;;;;;;;;;6317091;28;20302;-85
2022/07/07 17:30:51;;;;;;;5.10;0.90;;;;;;;;;;6310006;28;20052;-84
2022/07/07 17:33:52;;;;;;;3.17;0.97;;;;;;;;;;6312383;28;20070;-83
2022/07/07 17:36:54;;;;;;;10.82;1.38;;;;;;;;;;6320208;28;20438;-84
2022/07/07 17:39:57;;;;;;;5.82;0.95;;;;;;;;;;6312831;28;20063;-84
2022/07/07 17:42:59;;;;;;;4.53;1.00;;;;;;;;;;6310897;28;20327;-83
2022/07/07 17:46:00;;;;;;;2.97;1.10;;;;;;;;;;6312932;28;20056;-84
2022/07/07 17:49:02;;;;;;;1.95;1.13;;;;;;;;;;6310930;28;20239;-83
2022/07/07 17:52:04;;;;;;;1.93;0.80;;;;;;;;;;6312806;28;20063;-85
2022/07/07 17:55:08;;;;;;;2.55;0.75;;;;;;;;;;6311381;28;20859;-82
2022/07/07 17:58:10;;;;;;;4.47;0.82;;;;;;;;;;6311924;28;20100;-82
2022/07/07 18:01:12;;;;;;;2.00;0.90;;;;;;;;;;6308949;28;20044;-86
2022/07/07 18:04:14;;;;;;;2.27;0.80;;;;;;;;;;6308861;28;20051;-81
2022/07/07 18:07:15;;;;;;;3.40;0.80;;;;;;;;;;6309196;28;20474;-82
2022/07/07 18:10:18;;;;;;;2.90;1.10;;;;;;;;;;6310080;28;20060;-81
2022/07/07 18:13:20;;;;;;;1.50;0.82;;;;;;;;;;6311056;28;20056;-83
2022/07/07 18:16:22;;;;;;;0.70;0.70;;;;;;;;;;6308029;28;20074;-77
2022/07/07 18:19:24;;;;;;;2.65;0.90;;;;;;;;;;6311019;28;20231;-79
2022/07/07 18:22:26;;;;;;;2.30;0.80;;;;;;;;;;6309973;28;20055;-80
2022/07/07 18:25:29;;;;;;;3.35;0.85;;;;;;;;;;6309935;28;20105;-81